Allenville, Illinois
Current Conditions -  °F | °C
As of 6:03 AM on Monday 26 Jan 2015 (Local Time) from KMTO Reporting Station
Overcast Overcast  
Wind Chill: 16°   Ceiling: 900
Heat Index: 26°   Visibility: 10mi
Dew Point: 22°   Wind: 12mph
Humidity: 84%   Direction: 320°NW
Pressure: 29.95"   Gusts: NA
Location:  39.5872°N, 88.5835°W
Report Text: KMTO 261203Z AUTO 32010KT 10SM OVC009 M03/M06 A2995 RMK AO2 T10331056
Loading
Personal Weather Stations






























Interactive Weather Map New forecast layout! Learn more

10-Day Weather Forecast

Advertisements
Track Severe Weather on mobile